sensor_id;sensor_type;location;lat;lon;timestamp;P1;durP1;ratioP1;P2;durP2;ratioP2
75297;SDS011;63896;45.990;18.688;2023-04-24T00:01:28;19.92;;;11.85;;
75297;SDS011;63896;45.990;18.688;2023-04-24T00:04:32;20.38;;;11.45;;
75297;SDS011;63896;45.990;18.688;2023-04-24T00:07:35;19.65;;;11.90;;
75297;SDS011;63896;45.990;18.688;2023-04-24T00:10:38;21.87;;;12.20;;
75297;SDS011;63896;45.990;18.688;2023-04-24T00:13:41;17.65;;;11.65;;
75297;SDS011;63896;45.990;18.688;2023-04-24T00:16:44;17.98;;;12.10;;
75297;SDS011;63896;45.990;18.688;2023-04-24T00:19:47;19.73;;;11.85;;
75297;SDS011;63896;45.990;18.688;2023-04-24T00:22:52;20.40;;;12.27;;
75297;SDS011;63896;45.990;18.688;2023-04-24T00:25:55;26.00;;;12.33;;
75297;SDS011;63896;45.990;18.688;2023-04-24T00:28:58;18.42;;;11.90;;
75297;SDS011;63896;45.990;18.688;2023-04-24T00:32:01;23.67;;;12.27;;
75297;SDS011;63896;45.990;18.688;2023-04-24T00:35:07;20.80;;;11.95;;
75297;SDS011;63896;45.990;18.688;2023-04-24T00:38:10;20.70;;;11.45;;
75297;SDS011;63896;45.990;18.688;2023-04-24T00:41:13;21.67;;;12.87;;
75297;SDS011;63896;45.990;18.688;2023-04-24T00:44:15;18.02;;;11.77;;
75297;SDS011;63896;45.990;18.688;2023-04-24T00:47:18;18.50;;;12.20;;
75297;SDS011;63896;45.990;18.688;2023-04-24T00:50:23;20.45;;;12.60;;
75297;SDS011;63896;45.990;18.688;2023-04-24T00:53:26;18.80;;;12.98;;
75297;SDS011;63896;45.990;18.688;2023-04-24T00:56:29;17.20;;;12.23;;
75297;SDS011;63896;45.990;18.688;2023-04-24T00:59:33;20.35;;;12.27;;
75297;SDS011;63896;45.990;18.688;2023-04-24T01:02:37;23.25;;;13.30;;
75297;SDS011;63896;45.990;18.688;2023-04-24T01:05:42;20.85;;;12.27;;
75297;SDS011;63896;45.990;18.688;2023-04-24T01:08:45;21.92;;;12.20;;
75297;SDS011;63896;45.990;18.688;2023-04-24T01:11:50;18.43;;;13.03;;
75297;SDS011;63896;45.990;18.688;2023-04-24T01:14:54;23.23;;;12.75;;
75297;SDS011;63896;45.990;18.688;2023-04-24T01:17:57;23.35;;;12.85;;
75297;SDS011;63896;45.990;18.688;2023-04-24T01:21:01;25.75;;;13.63;;
75297;SDS011;63896;45.990;18.688;2023-04-24T01:24:07;21.27;;;12.75;;
75297;SDS011;63896;45.990;18.688;2023-04-24T01:27:10;27.87;;;13.37;;
75297;SDS011;63896;45.990;18.688;2023-04-24T01:30:13;22.30;;;13.30;;
75297;SDS011;63896;45.990;18.688;2023-04-24T01:33:17;22.13;;;13.70;;
75297;SDS011;63896;45.990;18.688;2023-04-24T01:36:20;19.23;;;13.02;;
75297;SDS011;63896;45.990;18.688;2023-04-24T01:39:26;19.65;;;13.55;;
75297;SDS011;63896;45.990;18.688;2023-04-24T01:42:30;24.60;;;13.90;;
75297;SDS011;63896;45.990;18.688;2023-04-24T01:45:33;24.00;;;13.57;;
75297;SDS011;63896;45.990;18.688;2023-04-24T01:48:38;19.13;;;12.55;;
75297;SDS011;63896;45.990;18.688;2023-04-24T01:51:42;21.80;;;12.63;;
75297;SDS011;63896;45.990;18.688;2023-04-24T01:54:45;20.70;;;13.52;;
75297;SDS011;63896;45.990;18.688;2023-04-24T01:57:48;21.37;;;13.60;;
75297;SDS011;63896;45.990;18.688;2023-04-24T02:00:51;20.83;;;12.80;;
75297;SDS011;63896;45.990;18.688;2023-04-24T02:03:55;21.23;;;12.65;;
75297;SDS011;63896;45.990;18.688;2023-04-24T02:06:58;20.23;;;12.77;;
75297;SDS011;63896;45.990;18.688;2023-04-24T02:10:01;27.75;;;13.40;;
75297;SDS011;63896;45.990;18.688;2023-04-24T02:13:04;24.70;;;12.53;;
75297;SDS011;63896;45.990;18.688;2023-04-24T02:16:07;30.80;;;15.27;;
75297;SDS011;63896;45.990;18.688;2023-04-24T02:19:10;30.25;;;16.95;;
75297;SDS011;63896;45.990;18.688;2023-04-24T02:22:13;30.73;;;16.80;;
75297;SDS011;63896;45.990;18.688;2023-04-24T02:25:16;30.00;;;16.83;;
75297;SDS011;63896;45.990;18.688;2023-04-24T02:28:19;28.90;;;15.90;;
75297;SDS011;63896;45.990;18.688;2023-04-24T02:31:22;26.20;;;15.10;;
75297;SDS011;63896;45.990;18.688;2023-04-24T02:34:25;24.80;;;15.93;;
75297;SDS011;63896;45.990;18.688;2023-04-24T02:37:28;23.27;;;15.55;;
75297;SDS011;63896;45.990;18.688;2023-04-24T02:40:31;28.45;;;15.95;;
75297;SDS011;63896;45.990;18.688;2023-04-24T02:43:34;28.30;;;17.87;;
75297;SDS011;63896;45.990;18.688;2023-04-24T02:46:37;32.28;;;18.33;;
75297;SDS011;63896;45.990;18.688;2023-04-24T02:49:40;32.60;;;17.27;;
75297;SDS011;63896;45.990;18.688;2023-04-24T02:52:45;28.60;;;17.23;;
75297;SDS011;63896;45.990;18.688;2023-04-24T02:55:48;29.00;;;16.50;;
75297;SDS011;63896;45.990;18.688;2023-04-24T02:58:51;27.53;;;16.90;;
75297;SDS011;63896;45.990;18.688;2023-04-24T03:01:54;25.92;;;17.05;;
75297;SDS011;63896;45.990;18.688;2023-04-24T03:04:57;25.48;;;16.38;;
75297;SDS011;63896;45.990;18.688;2023-04-24T03:08:00;26.00;;;16.52;;
75297;SDS011;63896;45.990;18.688;2023-04-24T03:11:03;30.70;;;15.90;;
75297;SDS011;63896;45.990;18.688;2023-04-24T03:14:06;22.57;;;16.07;;
75297;SDS011;63896;45.990;18.688;2023-04-24T03:17:09;27.48;;;16.13;;
75297;SDS011;63896;45.990;18.688;2023-04-24T03:20:12;27.23;;;16.20;;
75297;SDS011;63896;45.990;18.688;2023-04-24T03:23:15;32.03;;;17.20;;
75297;SDS011;63896;45.990;18.688;2023-04-24T03:26:18;23.75;;;15.90;;
75297;SDS011;63896;45.990;18.688;2023-04-24T03:29:35;25.23;;;16.13;;
75297;SDS011;63896;45.990;18.688;2023-04-24T03:32:38;27.88;;;16.20;;
75297;SDS011;63896;45.990;18.688;2023-04-24T03:35:44;25.65;;;15.68;;
75297;SDS011;63896;45.990;18.688;2023-04-24T03:38:47;24.05;;;15.05;;
75297;SDS011;63896;45.990;18.688;2023-04-24T03:42:03;21.52;;;14.60;;
75297;SDS011;63896;45.990;18.688;2023-04-24T03:45:17;26.53;;;13.90;;
75297;SDS011;63896;45.990;18.688;2023-04-24T03:48:23;21.27;;;14.75;;
75297;SDS011;63896;45.990;18.688;2023-04-24T03:51:26;23.60;;;14.70;;
75297;SDS011;63896;45.990;18.688;2023-04-24T03:54:35;24.50;;;15.27;;
75297;SDS011;63896;45.990;18.688;2023-04-24T03:57:40;25.77;;;15.18;;
75297;SDS011;63896;45.990;18.688;2023-04-24T04:00:52;22.30;;;14.70;;
75297;SDS011;63896;45.990;18.688;2023-04-24T04:04:15;23.90;;;14.32;;
75297;SDS011;63896;45.990;18.688;2023-04-24T04:07:19;21.67;;;14.57;;
75297;SDS011;63896;45.990;18.688;2023-04-24T04:10:22;26.05;;;15.40;;
75297;SDS011;63896;45.990;18.688;2023-04-24T04:13:25;24.63;;;16.15;;
75297;SDS011;63896;45.990;18.688;2023-04-24T04:16:28;23.87;;;15.27;;
75297;SDS011;63896;45.990;18.688;2023-04-24T04:19:36;25.50;;;15.23;;
75297;SDS011;63896;45.990;18.688;2023-04-24T04:22:40;26.65;;;15.90;;
75297;SDS011;63896;45.990;18.688;2023-04-24T04:25:49;35.08;;;18.13;;
75297;SDS011;63896;45.990;18.688;2023-04-24T04:28:58;44.40;;;23.52;;
75297;SDS011;63896;45.990;18.688;2023-04-24T04:32:04;40.47;;;21.80;;
75297;SDS011;63896;45.990;18.688;2023-04-24T04:35:07;32.22;;;17.52;;
75297;SDS011;63896;45.990;18.688;2023-04-24T04:38:10;27.90;;;16.55;;
75297;SDS011;63896;45.990;18.688;2023-04-24T04:41:29;30.42;;;16.88;;
75297;SDS011;63896;45.990;18.688;2023-04-24T04:44:33;30.38;;;17.65;;
75297;SDS011;63896;45.990;18.688;2023-04-24T04:47:39;31.23;;;17.83;;
75297;SDS011;63896;45.990;18.688;2023-04-24T04:50:43;33.35;;;17.83;;
75297;SDS011;63896;45.990;18.688;2023-04-24T04:53:47;36.00;;;20.10;;
75297;SDS011;63896;45.990;18.688;2023-04-24T04:56:50;35.55;;;20.02;;
75297;SDS011;63896;45.990;18.688;2023-04-24T04:59:53;40.75;;;21.10;;
75297;SDS011;63896;45.990;18.688;2023-04-24T05:03:11;50.43;;;22.77;;
75297;SDS011;63896;45.990;18.688;2023-04-24T05:06:28;40.92;;;21.55;;
75297;SDS011;63896;45.990;18.688;2023-04-24T05:09:30;36.30;;;18.90;;
75297;SDS011;63896;45.990;18.688;2023-04-24T05:12:37;54.03;;;25.98;;
75297;SDS011;63896;45.990;18.688;2023-04-24T05:15:41;60.08;;;31.38;;
75297;SDS011;63896;45.990;18.688;2023-04-24T05:18:44;40.53;;;22.20;;
75297;SDS011;63896;45.990;18.688;2023-04-24T05:21:50;34.60;;;19.92;;
75297;SDS011;63896;45.990;18.688;2023-04-24T05:24:53;33.30;;;18.85;;
75297;SDS011;63896;45.990;18.688;2023-04-24T05:28:19;30.77;;;17.67;;
75297;SDS011;63896;45.990;18.688;2023-04-24T05:31:35;30.67;;;17.77;;
75297;SDS011;63896;45.990;18.688;2023-04-24T05:34:38;32.40;;;19.33;;
75297;SDS011;63896;45.990;18.688;2023-04-24T05:37:42;32.20;;;16.63;;
75297;SDS011;63896;45.990;18.688;2023-04-24T05:40:58;28.45;;;16.98;;
75297;SDS011;63896;45.990;18.688;2023-04-24T05:44:01;28.98;;;17.58;;
75297;SDS011;63896;45.990;18.688;2023-04-24T05:47:04;27.35;;;17.40;;
75297;SDS011;63896;45.990;18.688;2023-04-24T05:50:07;26.20;;;16.40;;
75297;SDS011;63896;45.990;18.688;2023-04-24T05:53:10;33.42;;;17.35;;
75297;SDS011;63896;45.990;18.688;2023-04-24T05:56:14;28.20;;;17.35;;
75297;SDS011;63896;45.990;18.688;2023-04-24T05:59:18;30.40;;;16.92;;
75297;SDS011;63896;45.990;18.688;2023-04-24T06:02:22;27.33;;;17.30;;
75297;SDS011;63896;45.990;18.688;2023-04-24T06:05:27;27.90;;;17.83;;
75297;SDS011;63896;45.990;18.688;2023-04-24T06:08:30;31.70;;;17.30;;
75297;SDS011;63896;45.990;18.688;2023-04-24T06:11:33;30.10;;;17.73;;
75297;SDS011;63896;45.990;18.688;2023-04-24T06:14:37;32.83;;;18.27;;
75297;SDS011;63896;45.990;18.688;2023-04-24T06:17:56;35.42;;;21.38;;
75297;SDS011;63896;45.990;18.688;2023-04-24T06:21:00;43.17;;;26.50;;
75297;SDS011;63896;45.990;18.688;2023-04-24T06:24:04;53.22;;;33.88;;
75297;SDS011;63896;45.990;18.688;2023-04-24T06:27:07;42.33;;;26.48;;
75297;SDS011;63896;45.990;18.688;2023-04-24T06:30:10;42.13;;;25.58;;
75297;SDS011;63896;45.990;18.688;2023-04-24T06:33:15;37.72;;;20.42;;
75297;SDS011;63896;45.990;18.688;2023-04-24T06:36:23;34.43;;;22.30;;
75297;SDS011;63896;45.990;18.688;2023-04-24T06:39:26;40.28;;;22.92;;
75297;SDS011;63896;45.990;18.688;2023-04-24T06:42:29;38.10;;;22.98;;
75297;SDS011;63896;45.990;18.688;2023-04-24T06:45:35;28.98;;;19.88;;
75297;SDS011;63896;45.990;18.688;2023-04-24T06:48:59;33.13;;;20.02;;
75297;SDS011;63896;45.990;18.688;2023-04-24T06:52:03;38.73;;;21.97;;
75297;SDS011;63896;45.990;18.688;2023-04-24T06:55:06;35.65;;;21.17;;
75297;SDS011;63896;45.990;18.688;2023-04-24T06:58:10;26.92;;;18.10;;
75297;SDS011;63896;45.990;18.688;2023-04-24T07:01:14;27.13;;;18.10;;
75297;SDS011;63896;45.990;18.688;2023-04-24T07:04:24;30.67;;;19.52;;
75297;SDS011;63896;45.990;18.688;2023-04-24T07:07:32;29.13;;;19.30;;
75297;SDS011;63896;45.990;18.688;2023-04-24T07:10:35;29.88;;;17.65;;
75297;SDS011;63896;45.990;18.688;2023-04-24T07:13:38;25.52;;;16.90;;
75297;SDS011;63896;45.990;18.688;2023-04-24T07:16:45;25.67;;;16.45;;
75297;SDS011;63896;45.990;18.688;2023-04-24T07:19:51;29.30;;;16.80;;
75297;SDS011;63896;45.990;18.688;2023-04-24T07:22:54;27.37;;;17.10;;
75297;SDS011;63896;45.990;18.688;2023-04-24T07:25:58;23.67;;;16.38;;
75297;SDS011;63896;45.990;18.688;2023-04-24T07:29:01;24.65;;;15.95;;
75297;SDS011;63896;45.990;18.688;2023-04-24T07:32:06;24.67;;;16.10;;
75297;SDS011;63896;45.990;18.688;2023-04-24T07:35:10;18.38;;;13.35;;
75297;SDS011;63896;45.990;18.688;2023-04-24T07:38:22;18.43;;;11.40;;
75297;SDS011;63896;45.990;18.688;2023-04-24T07:41:25;19.85;;;11.35;;
75297;SDS011;63896;45.990;18.688;2023-04-24T07:44:27;14.75;;;8.25;;
75297;SDS011;63896;45.990;18.688;2023-04-24T07:47:31;15.13;;;7.63;;
75297;SDS011;63896;45.990;18.688;2023-04-24T07:50:35;11.07;;;5.82;;
75297;SDS011;63896;45.990;18.688;2023-04-24T07:53:38;8.03;;;4.63;;
75297;SDS011;63896;45.990;18.688;2023-04-24T07:56:42;6.40;;;3.78;;
75297;SDS011;63896;45.990;18.688;2023-04-24T07:59:45;2.67;;;2.22;;
75297;SDS011;63896;45.990;18.688;2023-04-24T08:02:48;5.10;;;2.63;;
75297;SDS011;63896;45.990;18.688;2023-04-24T08:05:52;3.22;;;2.40;;
75297;SDS011;63896;45.990;18.688;2023-04-24T08:08:55;7.17;;;2.40;;
75297;SDS011;63896;45.990;18.688;2023-04-24T08:11:59;7.80;;;4.10;;
75297;SDS011;63896;45.990;18.688;2023-04-24T08:15:02;8.48;;;4.35;;
75297;SDS011;63896;45.990;18.688;2023-04-24T08:18:05;5.95;;;3.75;;
75297;SDS011;63896;45.990;18.688;2023-04-24T08:21:08;7.55;;;4.57;;
75297;SDS011;63896;45.990;18.688;2023-04-24T08:24:11;5.10;;;4.00;;
75297;SDS011;63896;45.990;18.688;2023-04-24T08:27:14;5.65;;;3.90;;
75297;SDS011;63896;45.990;18.688;2023-04-24T08:30:17;5.32;;;3.53;;
75297;SDS011;63896;45.990;18.688;2023-04-24T08:33:24;5.25;;;3.45;;
75297;SDS011;63896;45.990;18.688;2023-04-24T08:36:28;8.73;;;4.82;;
75297;SDS011;63896;45.990;18.688;2023-04-24T08:39:47;12.30;;;5.87;;
75297;SDS011;63896;45.990;18.688;2023-04-24T08:42:51;7.18;;;5.03;;
75297;SDS011;63896;45.990;18.688;2023-04-24T08:45:58;10.93;;;5.25;;
75297;SDS011;63896;45.990;18.688;2023-04-24T08:49:02;9.95;;;5.55;;
75297;SDS011;63896;45.990;18.688;2023-04-24T08:52:07;10.95;;;5.65;;
75297;SDS011;63896;45.990;18.688;2023-04-24T08:55:10;10.90;;;5.90;;
75297;SDS011;63896;45.990;18.688;2023-04-24T08:58:14;12.05;;;5.90;;
75297;SDS011;63896;45.990;18.688;2023-04-24T09:01:19;9.20;;;4.40;;
75297;SDS011;63896;45.990;18.688;2023-04-24T09:09:55;15.05;;;7.15;;
75297;SDS011;63896;45.990;18.688;2023-04-24T09:12:59;11.03;;;6.17;;
75297;SDS011;63896;45.990;18.688;2023-04-24T09:16:07;14.32;;;8.15;;
75297;SDS011;63896;45.990;18.688;2023-04-24T09:19:10;9.38;;;5.60;;
75297;SDS011;63896;45.990;18.688;2023-04-24T09:22:12;11.75;;;5.38;;
75297;SDS011;63896;45.990;18.688;2023-04-24T09:25:16;10.32;;;6.13;;
75297;SDS011;63896;45.990;18.688;2023-04-24T09:28:19;15.60;;;8.83;;
75297;SDS011;63896;45.990;18.688;2023-04-24T09:31:28;11.38;;;6.68;;
75297;SDS011;63896;45.990;18.688;2023-04-24T09:34:32;12.60;;;8.05;;
75297;SDS011;63896;45.990;18.688;2023-04-24T09:37:36;12.40;;;5.90;;
75297;SDS011;63896;45.990;18.688;2023-04-24T09:40:43;7.55;;;5.38;;
75297;SDS011;63896;45.990;18.688;2023-04-24T09:44:01;6.13;;;4.40;;
75297;SDS011;63896;45.990;18.688;2023-04-24T09:47:14;6.75;;;4.50;;
75297;SDS011;63896;45.990;18.688;2023-04-24T09:50:17;7.05;;;4.85;;
75297;SDS011;63896;45.990;18.688;2023-04-24T09:53:30;7.80;;;4.68;;
75297;SDS011;63896;45.990;18.688;2023-04-24T09:56:35;6.57;;;4.72;;
75297;SDS011;63896;45.990;18.688;2023-04-24T09:59:56;7.07;;;4.27;;
75297;SDS011;63896;45.990;18.688;2023-04-24T10:03:01;6.40;;;3.92;;
75297;SDS011;63896;45.990;18.688;2023-04-24T10:06:05;7.53;;;4.00;;
75297;SDS011;63896;45.990;18.688;2023-04-24T10:09:11;7.93;;;4.80;;
75297;SDS011;63896;45.990;18.688;2023-04-24T10:12:16;6.50;;;4.75;;
75297;SDS011;63896;45.990;18.688;2023-04-24T10:15:19;6.63;;;4.30;;
75297;SDS011;63896;45.990;18.688;2023-04-24T10:18:23;6.20;;;4.75;;
75297;SDS011;63896;45.990;18.688;2023-04-24T10:21:27;8.20;;;4.55;;
75297;SDS011;63896;45.990;18.688;2023-04-24T10:24:30;7.25;;;4.50;;
75297;SDS011;63896;45.990;18.688;2023-04-24T10:27:35;8.07;;;4.65;;
75297;SDS011;63896;45.990;18.688;2023-04-24T10:30:40;11.07;;;5.57;;
75297;SDS011;63896;45.990;18.688;2023-04-24T10:33:45;9.35;;;4.65;;
75297;SDS011;63896;45.990;18.688;2023-04-24T10:36:51;9.57;;;4.32;;
75297;SDS011;63896;45.990;18.688;2023-04-24T10:40:07;7.32;;;4.20;;
75297;SDS011;63896;45.990;18.688;2023-04-24T10:43:21;14.20;;;5.85;;
75297;SDS011;63896;45.990;18.688;2023-04-24T10:46:28;9.57;;;5.43;;
75297;SDS011;63896;45.990;18.688;2023-04-24T10:49:33;8.70;;;4.20;;
75297;SDS011;63896;45.990;18.688;2023-04-24T10:52:45;13.40;;;5.40;;
75297;SDS011;63896;45.990;18.688;2023-04-24T10:55:57;7.97;;;4.35;;
75297;SDS011;63896;45.990;18.688;2023-04-24T10:59:07;25.10;;;12.48;;
75297;SDS011;63896;45.990;18.688;2023-04-24T11:02:15;22.47;;;10.30;;
75297;SDS011;63896;45.990;18.688;2023-04-24T11:05:18;12.27;;;6.15;;
75297;SDS011;63896;45.990;18.688;2023-04-24T11:11:29;10.48;;;6.07;;
75297;SDS011;63896;45.990;18.688;2023-04-24T11:15:08;6.47;;;4.03;;
75297;SDS011;63896;45.990;18.688;2023-04-24T11:18:04;6.43;;;4.47;;
75297;SDS011;63896;45.990;18.688;2023-04-24T11:21:13;4.63;;;3.90;;
75297;SDS011;63896;45.990;18.688;2023-04-24T11:27:43;9.32;;;5.15;;
75297;SDS011;63896;45.990;18.688;2023-04-24T11:30:51;7.65;;;5.32;;
75297;SDS011;63896;45.990;18.688;2023-04-24T11:33:55;8.47;;;5.23;;
75297;SDS011;63896;45.990;18.688;2023-04-24T11:40:56;7.80;;;5.13;;
75297;SDS011;63896;45.990;18.688;2023-04-24T11:43:59;7.72;;;4.88;;
75297;SDS011;63896;45.990;18.688;2023-04-24T11:47:05;9.45;;;4.93;;
75297;SDS011;63896;45.990;18.688;2023-04-24T11:50:29;5.43;;;3.73;;
75297;SDS011;63896;45.990;18.688;2023-04-24T11:53:33;5.25;;;4.28;;
75297;SDS011;63896;45.990;18.688;2023-04-24T11:56:36;7.03;;;4.28;;
75297;SDS011;63896;45.990;18.688;2023-04-24T11:59:47;8.50;;;5.65;;
75297;SDS011;63896;45.990;18.688;2023-04-24T12:02:50;11.90;;;7.28;;
75297;SDS011;63896;45.990;18.688;2023-04-24T12:06:15;9.00;;;5.97;;
75297;SDS011;63896;45.990;18.688;2023-04-24T12:09:17;9.45;;;5.78;;
75297;SDS011;63896;45.990;18.688;2023-04-24T12:12:20;11.23;;;7.72;;
75297;SDS011;63896;45.990;18.688;2023-04-24T12:15:26;9.30;;;6.70;;
75297;SDS011;63896;45.990;18.688;2023-04-24T12:18:30;10.88;;;7.20;;
75297;SDS011;63896;45.990;18.688;2023-04-24T12:21:33;10.60;;;6.10;;
75297;SDS011;63896;45.990;18.688;2023-04-24T12:24:54;8.43;;;6.05;;
75297;SDS011;63896;45.990;18.688;2023-04-24T12:28:11;13.10;;;7.18;;
75297;SDS011;63896;45.990;18.688;2023-04-24T12:31:16;10.77;;;6.07;;
75297;SDS011;63896;45.990;18.688;2023-04-24T12:34:20;7.65;;;4.93;;
75297;SDS011;63896;45.990;18.688;2023-04-24T12:37:24;7.07;;;5.10;;
75297;SDS011;63896;45.990;18.688;2023-04-24T12:44:10;8.77;;;5.15;;
75297;SDS011;63896;45.990;18.688;2023-04-24T12:47:16;7.40;;;4.80;;
75297;SDS011;63896;45.990;18.688;2023-04-24T12:50:19;11.32;;;5.80;;
75297;SDS011;63896;45.990;18.688;2023-04-24T12:53:22;6.47;;;5.20;;
75297;SDS011;63896;45.990;18.688;2023-04-24T12:56:25;8.02;;;5.38;;
75297;SDS011;63896;45.990;18.688;2023-04-24T12:59:28;6.45;;;4.30;;
75297;SDS011;63896;45.990;18.688;2023-04-24T13:02:31;7.63;;;4.50;;
75297;SDS011;63896;45.990;18.688;2023-04-24T13:05:34;7.53;;;4.80;;
75297;SDS011;63896;45.990;18.688;2023-04-24T13:08:38;9.93;;;6.50;;
75297;SDS011;63896;45.990;18.688;2023-04-24T13:11:41;5.65;;;4.90;;
75297;SDS011;63896;45.990;18.688;2023-04-24T13:14:44;9.23;;;4.60;;
75297;SDS011;63896;45.990;18.688;2023-04-24T13:17:48;5.28;;;4.45;;
75297;SDS011;63896;45.990;18.688;2023-04-24T13:20:51;5.40;;;3.03;;
75297;SDS011;63896;45.990;18.688;2023-04-24T13:23:53;6.07;;;3.40;;
75297;SDS011;63896;45.990;18.688;2023-04-24T13:26:56;5.93;;;3.60;;
75297;SDS011;63896;45.990;18.688;2023-04-24T13:30:00;3.80;;;3.15;;
75297;SDS011;63896;45.990;18.688;2023-04-24T13:33:05;10.10;;;7.10;;
75297;SDS011;63896;45.990;18.688;2023-04-24T13:36:08;9.50;;;4.70;;
75297;SDS011;63896;45.990;18.688;2023-04-24T13:39:11;4.83;;;3.40;;
75297;SDS011;63896;45.990;18.688;2023-04-24T13:42:14;7.15;;;5.43;;
75297;SDS011;63896;45.990;18.688;2023-04-24T13:45:17;7.00;;;4.50;;
75297;SDS011;63896;45.990;18.688;2023-04-24T13:48:26;12.27;;;7.07;;
75297;SDS011;63896;45.990;18.688;2023-04-24T13:51:29;11.70;;;8.40;;
75297;SDS011;63896;45.990;18.688;2023-04-24T13:54:32;6.20;;;4.50;;
75297;SDS011;63896;45.990;18.688;2023-04-24T13:57:35;8.43;;;4.90;;
75297;SDS011;63896;45.990;18.688;2023-04-24T14:00:39;7.90;;;5.53;;
75297;SDS011;63896;45.990;18.688;2023-04-24T14:03:42;7.72;;;5.30;;
75297;SDS011;63896;45.990;18.688;2023-04-24T14:06:48;7.47;;;5.10;;
75297;SDS011;63896;45.990;18.688;2023-04-24T14:09:51;8.57;;;5.70;;
75297;SDS011;63896;45.990;18.688;2023-04-24T14:12:57;10.60;;;6.57;;
75297;SDS011;63896;45.990;18.688;2023-04-24T14:16:00;9.05;;;6.32;;
75297;SDS011;63896;45.990;18.688;2023-04-24T14:19:03;11.77;;;6.65;;
75297;SDS011;63896;45.990;18.688;2023-04-24T14:22:11;7.70;;;4.90;;
75297;SDS011;63896;45.990;18.688;2023-04-24T14:25:15;9.50;;;5.80;;
75297;SDS011;63896;45.990;18.688;2023-04-24T14:28:20;10.32;;;6.03;;
75297;SDS011;63896;45.990;18.688;2023-04-24T14:31:26;8.35;;;5.18;;
75297;SDS011;63896;45.990;18.688;2023-04-24T14:34:29;7.28;;;5.47;;
75297;SDS011;63896;45.990;18.688;2023-04-24T14:37:32;9.73;;;5.43;;
75297;SDS011;63896;45.990;18.688;2023-04-24T14:40:35;8.67;;;5.20;;
75297;SDS011;63896;45.990;18.688;2023-04-24T14:43:58;6.72;;;4.80;;
75297;SDS011;63896;45.990;18.688;2023-04-24T14:47:01;9.02;;;4.60;;
75297;SDS011;63896;45.990;18.688;2023-04-24T14:50:04;7.20;;;4.78;;
75297;SDS011;63896;45.990;18.688;2023-04-24T14:53:08;9.05;;;5.18;;
75297;SDS011;63896;45.990;18.688;2023-04-24T14:56:11;6.60;;;4.20;;
75297;SDS011;63896;45.990;18.688;2023-04-24T14:59:14;7.32;;;4.63;;
75297;SDS011;63896;45.990;18.688;2023-04-24T15:02:17;5.97;;;4.68;;
75297;SDS011;63896;45.990;18.688;2023-04-24T15:05:23;9.15;;;4.75;;
75297;SDS011;63896;45.990;18.688;2023-04-24T15:08:28;7.72;;;4.43;;
75297;SDS011;63896;45.990;18.688;2023-04-24T15:11:31;11.53;;;5.90;;
75297;SDS011;63896;45.990;18.688;2023-04-24T15:14:34;6.60;;;4.60;;
75297;SDS011;63896;45.990;18.688;2023-04-24T15:17:37;6.93;;;4.07;;
75297;SDS011;63896;45.990;18.688;2023-04-24T15:20:40;7.28;;;4.72;;
75297;SDS011;63896;45.990;18.688;2023-04-24T15:23:44;8.13;;;5.65;;
75297;SDS011;63896;45.990;18.688;2023-04-24T15:26:47;8.07;;;5.77;;
75297;SDS011;63896;45.990;18.688;2023-04-24T15:29:50;11.38;;;6.78;;
75297;SDS011;63896;45.990;18.688;2023-04-24T15:32:53;12.23;;;6.32;;
75297;SDS011;63896;45.990;18.688;2023-04-24T15:35:56;13.25;;;6.97;;
75297;SDS011;63896;45.990;18.688;2023-04-24T15:38:59;7.28;;;5.40;;
75297;SDS011;63896;45.990;18.688;2023-04-24T15:42:07;11.30;;;7.10;;
75297;SDS011;63896;45.990;18.688;2023-04-24T15:45:10;14.80;;;10.30;;
75297;SDS011;63896;45.990;18.688;2023-04-24T15:48:13;12.68;;;8.18;;
75297;SDS011;63896;45.990;18.688;2023-04-24T15:51:16;9.90;;;7.35;;
75297;SDS011;63896;45.990;18.688;2023-04-24T15:54:19;14.70;;;9.18;;
75297;SDS011;63896;45.990;18.688;2023-04-24T15:57:22;16.73;;;11.17;;
75297;SDS011;63896;45.990;18.688;2023-04-24T16:00:25;21.20;;;15.85;;
75297;SDS011;63896;45.990;18.688;2023-04-24T16:03:31;22.77;;;14.57;;
75297;SDS011;63896;45.990;18.688;2023-04-24T16:06:34;16.77;;;11.35;;
75297;SDS011;63896;45.990;18.688;2023-04-24T16:09:37;13.63;;;9.35;;
75297;SDS011;63896;45.990;18.688;2023-04-24T16:12:40;12.10;;;8.57;;
75297;SDS011;63896;45.990;18.688;2023-04-24T16:15:43;18.90;;;10.98;;
75297;SDS011;63896;45.990;18.688;2023-04-24T16:18:47;23.15;;;14.52;;
75297;SDS011;63896;45.990;18.688;2023-04-24T16:21:52;12.75;;;8.40;;
75297;SDS011;63896;45.990;18.688;2023-04-24T16:24:57;8.18;;;6.00;;
75297;SDS011;63896;45.990;18.688;2023-04-24T16:28:00;12.97;;;6.70;;
75297;SDS011;63896;45.990;18.688;2023-04-24T16:31:03;9.15;;;6.53;;
75297;SDS011;63896;45.990;18.688;2023-04-24T16:34:06;10.52;;;6.90;;
75297;SDS011;63896;45.990;18.688;2023-04-24T16:37:09;11.65;;;6.40;;
75297;SDS011;63896;45.990;18.688;2023-04-24T16:40:13;17.85;;;9.60;;
75297;SDS011;63896;45.990;18.688;2023-04-24T16:43:17;20.70;;;11.33;;
75297;SDS011;63896;45.990;18.688;2023-04-24T16:46:20;29.60;;;14.98;;
75297;SDS011;63896;45.990;18.688;2023-04-24T16:49:23;18.98;;;10.57;;
75297;SDS011;63896;45.990;18.688;2023-04-24T16:52:32;12.55;;;8.55;;
75297;SDS011;63896;45.990;18.688;2023-04-24T16:55:35;16.25;;;9.57;;
75297;SDS011;63896;45.990;18.688;2023-04-24T16:58:38;19.90;;;12.63;;
75297;SDS011;63896;45.990;18.688;2023-04-24T17:01:41;18.67;;;11.38;;
75297;SDS011;63896;45.990;18.688;2023-04-24T17:04:44;14.82;;;9.23;;
75297;SDS011;63896;45.990;18.688;2023-04-24T17:07:48;13.73;;;9.68;;
75297;SDS011;63896;45.990;18.688;2023-04-24T17:10:51;13.13;;;7.22;;
75297;SDS011;63896;45.990;18.688;2023-04-24T17:13:55;11.57;;;7.20;;
75297;SDS011;63896;45.990;18.688;2023-04-24T17:16:58;11.88;;;6.93;;
75297;SDS011;63896;45.990;18.688;2023-04-24T17:20:01;13.38;;;7.78;;
75297;SDS011;63896;45.990;18.688;2023-04-24T17:23:28;16.48;;;8.70;;
75297;SDS011;63896;45.990;18.688;2023-04-24T17:26:31;14.77;;;10.60;;
75297;SDS011;63896;45.990;18.688;2023-04-24T17:29:35;12.80;;;9.43;;
75297;SDS011;63896;45.990;18.688;2023-04-24T17:32:38;17.52;;;10.60;;
75297;SDS011;63896;45.990;18.688;2023-04-24T17:35:41;13.70;;;10.32;;
75297;SDS011;63896;45.990;18.688;2023-04-24T17:38:44;16.48;;;10.80;;
75297;SDS011;63896;45.990;18.688;2023-04-24T17:41:48;16.55;;;11.70;;
75297;SDS011;63896;45.990;18.688;2023-04-24T17:44:51;19.53;;;13.33;;
75297;SDS011;63896;45.990;18.688;2023-04-24T17:47:54;26.05;;;15.77;;
75297;SDS011;63896;45.990;18.688;2023-04-24T17:50:58;38.20;;;19.55;;
75297;SDS011;63896;45.990;18.688;2023-04-24T17:54:01;28.40;;;15.85;;
75297;SDS011;63896;45.990;18.688;2023-04-24T17:57:09;24.65;;;14.65;;
75297;SDS011;63896;45.990;18.688;2023-04-24T18:00:12;21.33;;;13.43;;
75297;SDS011;63896;45.990;18.688;2023-04-24T18:03:16;19.90;;;12.07;;
75297;SDS011;63896;45.990;18.688;2023-04-24T18:06:19;18.17;;;12.30;;
75297;SDS011;63896;45.990;18.688;2023-04-24T18:09:22;18.88;;;12.93;;
75297;SDS011;63896;45.990;18.688;2023-04-24T18:12:25;20.63;;;12.98;;
75297;SDS011;63896;45.990;18.688;2023-04-24T18:15:28;21.23;;;12.70;;
75297;SDS011;63896;45.990;18.688;2023-04-24T18:18:32;20.92;;;11.77;;